Portada
METAR-TAF:

METAR-TAF

Aeroports :

Tri-City Airport

Parsons, Kansas, Estats Units d'Amèrica

latitud: 37-19-40N, longitud: 095-30-15W, altitud: 274 m

Observació

L'informe es va fer fa 30 minuts, a les 14:52 UTC
Vent 12 kt del Sud amb ràfegues de 19 kt
Temperatura -1°C
Humitat 59%
Pressió 1021 hPa
Visibilitat: 16.1 km
Cel clar

METAR: KPPF 131452Z AUTO 19012G19KT 10SM CLR M01/M08 A3015 RMK AO2 PK WND 18029/1421 SLP218 T10111078 55005

Hora: 09:22 (15:22 UTC)


TAF: manca

Observacions i pronòstics meteorològics de més de 4000 aeroports (METAR i TAF).

Les estacions disponibles són els punts grocs i vermells al mapa.

Posi el ratolí al punt desitjat per veure el nom de l'estació.

Feu clic per veure les observacions i els pronòstics meteorològics.

Per canviar el mapa: feu clic els botons verds amb una creu de color negre per apropar; al botó verd amb un guió per allunyar la imatge; o en les fletxes verdes per a mapes adjacents.


METAR-TAF: